Time;durP1;ratioP1;P1;durP2;ratioP2;P2;SDS_P1;SDS_P2;PMS_P1;PMS_P2;Temp;Humidity;BMP_temperature;BMP_pressure;BME280_temperature;BME280_humidity;BME280_pressure;Samples;Min_cycle;Max_cycle;Signal;HPM_P1;HPM_P2
2023/03/22 00:00:11;;;;;;;2.25;0.70;;;20.10;65.60;;;;;;4936256;29;20063;-72
2023/03/22 00:02:38;;;;;;;1.30;0.90;;;20.10;65.70;;;;;;4934002;29;20052;-72
2023/03/22 00:05:06;;;;;;;1.00;0.50;;;20.00;65.70;;;;;;4936152;29;20048;-72
2023/03/22 00:07:33;;;;;;;1.45;0.22;;;20.00;65.70;;;;;;4918771;29;20086;-71
2023/03/22 00:10:00;;;;;;;1.70;0.55;;;20.00;65.70;;;;;;4935958;29;20055;-72
2023/03/22 00:12:29;;;;;;;1.92;0.57;;;19.90;65.70;;;;;;4935764;29;20070;-72
2023/03/22 00:14:56;;;;;;;1.20;0.68;;;19.90;65.80;;;;;;4935734;29;20058;-72
2023/03/22 00:17:24;;;;;;;1.30;0.80;;;19.90;65.80;;;;;;4902289;29;20064;-72
2023/03/22 00:19:53;;;;;;;1.45;0.52;;;19.80;65.80;;;;;;4906728;29;20056;-72
2023/03/22 00:22:20;;;;;;;0.93;0.22;;;19.90;65.90;;;;;;4917047;29;20056;-72
2023/03/22 00:24:47;;;;;;;2.00;0.22;;;19.80;65.80;;;;;;4899896;29;20568;-72
2023/03/22 00:27:14;;;;;;;0.93;0.60;;;19.80;65.90;;;;;;4900007;29;20052;-73
2023/03/22 00:29:43;;;;;;;1.10;0.70;;;19.70;65.90;;;;;;4915591;29;20056;-72
2023/03/22 00:32:10;;;;;;;1.13;0.43;;;19.70;65.90;;;;;;4927908;29;20055;-72
2023/03/22 00:34:37;;;;;;;0.98;0.43;;;19.70;66.00;;;;;;4918471;29;20048;-72
2023/03/22 00:37:04;;;;;;;1.55;0.68;;;19.70;66.00;;;;;;4923963;29;20064;-72
2023/03/22 00:39:31;;;;;;;1.52;0.43;;;19.60;66.00;;;;;;4899393;29;20052;-72
2023/03/22 00:41:58;;;;;;;1.63;0.40;;;19.60;66.00;;;;;;4899130;29;20059;-72
2023/03/22 00:44:25;;;;;;;1.42;0.82;;;19.60;66.10;;;;;;4899503;29;20070;-72
2023/03/22 00:46:53;;;;;;;1.45;0.75;;;19.50;66.10;;;;;;4918632;29;20565;-72
2023/03/22 00:49:20;;;;;;;1.27;0.35;;;19.50;66.10;;;;;;4916171;29;20416;-72
2023/03/22 00:51:47;;;;;;;1.30;0.32;;;19.50;66.10;;;;;;4916352;29;20131;-72
2023/03/22 00:54:15;;;;;;;1.08;0.50;;;19.50;66.10;;;;;;4916020;29;20059;-72
2023/03/22 00:56:44;;;;;;;1.58;0.43;;;19.40;66.10;;;;;;4916189;29;20052;-72
2023/03/22 00:59:12;;;;;;;1.70;0.32;;;19.40;66.20;;;;;;4899302;29;20515;-72
2023/03/22 01:01:39;;;;;;;1.15;0.38;;;19.40;66.20;;;;;;4904932;29;20056;-72
2023/03/22 01:04:07;;;;;;;1.17;0.52;;;19.40;66.20;;;;;;4905833;29;20056;-73
2023/03/22 01:06:35;;;;;;;1.20;0.32;;;19.30;66.20;;;;;;4911945;29;20052;-72
2023/03/22 01:09:03;;;;;;;1.23;0.22;;;19.30;66.20;;;;;;4914104;29;20497;-72
2023/03/22 01:11:30;;;;;;;1.20;0.45;;;19.30;66.20;;;;;;4898541;29;20140;-72
2023/03/22 01:13:58;;;;;;;1.27;0.77;;;19.30;66.20;;;;;;4905352;29;20672;-72
2023/03/22 01:16:25;;;;;;;1.13;0.38;;;19.30;66.30;;;;;;4922437;29;20060;-72
2023/03/22 01:18:52;;;;;;;1.42;0.47;;;19.30;66.20;;;;;;4922460;29;20063;-73
2023/03/22 01:21:20;;;;;;;1.83;0.80;;;19.40;66.50;;;;;;4914402;29;20048;-72
2023/03/22 01:23:47;;;;;;;1.92;0.38;;;19.40;66.10;;;;;;4914156;29;20071;-72
2023/03/22 01:26:14;;;;;;;1.33;0.30;;;19.50;66.00;;;;;;4915551;29;20441;-72
2023/03/22 01:28:41;;;;;;;1.20;0.95;;;19.50;65.90;;;;;;4915493;29;20130;-72
2023/03/22 01:31:08;;;;;;;1.00;0.50;;;19.50;65.80;;;;;;4925950;29;20090;-72
2023/03/22 01:33:35;;;;;;;1.55;0.32;;;19.60;65.80;;;;;;4934367;29;20050;-72
2023/03/22 01:36:02;;;;;;;1.75;0.60;;;19.60;65.60;;;;;;4934342;29;20115;-72
2023/03/22 01:38:30;;;;;;;1.60;0.50;;;19.70;65.50;;;;;;4932579;29;20421;-72
2023/03/22 01:40:57;;;;;;;1.00;0.43;;;19.80;65.40;;;;;;4934287;29;20059;-72
2023/03/22 01:43:24;;;;;;;1.60;0.73;;;19.80;65.30;;;;;;4932984;29;20078;-72
2023/03/22 01:45:52;;;;;;;1.55;0.68;;;19.90;65.70;;;;;;4932102;29;20070;-72
2023/03/22 01:48:25;;;;;;;1.95;1.13;;;20.00;65.00;;;;;;4932943;29;20062;-72
2023/03/22 01:51:02;;;;;;;1.15;0.47;;;20.00;64.90;;;;;;4932699;29;20103;-72
2023/03/22 01:53:32;;;;;;;1.35;0.32;;;20.10;64.80;;;;;;4932783;29;20055;-72
2023/03/22 01:56:00;;;;;;;0.88;0.43;;;20.10;64.80;;;;;;4932407;29;20492;-72
2023/03/22 01:58:28;;;;;;;1.92;0.88;;;20.10;64.80;;;;;;4932528;29;20063;-72
2023/03/22 02:00:55;;;;;;;0.90;0.43;;;20.10;64.80;;;;;;4931887;29;20413;-72
2023/03/22 02:03:32;;;;;;;1.15;0.43;;;20.10;64.80;;;;;;4932613;29;20060;-72
2023/03/22 02:05:59;;;;;;;1.45;0.43;;;20.10;64.80;;;;;;4932285;29;20048;-72
2023/03/22 02:08:27;;;;;;;0.77;0.20;;;20.10;64.80;;;;;;4933511;29;20089;-72
2023/03/22 02:10:55;;;;;;;0.85;0.35;;;20.10;64.80;;;;;;4932513;29;20412;-72
2023/03/22 02:13:48;;;;;;;1.50;0.55;;;20.10;64.90;;;;;;4927680;29;20413;-72
2023/03/22 02:16:29;;;;;;;0.80;0.30;;;20.00;64.80;;;;;;4895785;29;20482;-72
2023/03/22 02:19:34;;;;;;;1.00;0.63;;;20.00;64.90;;;;;;4913168;29;20490;-72
2023/03/22 02:22:40;;;;;;;1.08;0.73;;;20.00;64.90;;;;;;4913082;29;20056;-73
2023/03/22 02:25:46;;;;;;;0.95;0.38;;;19.90;64.90;;;;;;4903540;29;20131;-72
2023/03/22 02:28:33;;;;;;;1.20;0.70;;;19.90;65.00;;;;;;4914468;29;20059;-72
2023/03/22 02:31:36;;;;;;;1.33;0.60;;;19.90;65.00;;;;;;4895603;29;20056;-72
2023/03/22 02:34:30;;;;;;;2.28;0.88;;;19.90;65.10;;;;;;4890701;29;20056;-72
2023/03/22 02:37:21;;;;;;;0.88;0.22;;;19.80;65.10;;;;;;4895200;29;20055;-72
2023/03/22 02:39:53;;;;;;;1.80;0.73;;;19.80;65.10;;;;;;4867653;29;20056;-72
2023/03/22 02:42:30;;;;;;;1.80;0.70;;;19.70;65.10;;;;;;4910075;29;20075;-72
2023/03/22 02:45:01;;;;;;;2.15;0.73;;;19.70;65.20;;;;;;4920136;29;20066;-72
2023/03/22 02:47:38;;;;;;;1.10;0.32;;;19.70;65.20;;;;;;4913616;29;20048;-72
2023/03/22 02:50:12;;;;;;;1.20;0.65;;;19.70;65.20;;;;;;4912988;29;20064;-72
2023/03/22 02:52:44;;;;;;;1.23;0.70;;;19.60;65.30;;;;;;4912831;29;20056;-72
2023/03/22 02:55:17;;;;;;;1.60;1.08;;;19.60;65.30;;;;;;4914401;29;20056;-72
2023/03/22 02:57:48;;;;;;;1.13;0.25;;;19.60;65.40;;;;;;4914823;29;20445;-72
2023/03/22 03:00:17;;;;;;;1.33;1.17;;;19.50;65.40;;;;;;4915780;29;20063;-72
2023/03/22 03:02:47;;;;;;;1.88;0.80;;;19.50;65.40;;;;;;4913604;29;20048;-72
2023/03/22 03:05:16;;;;;;;0.90;0.38;;;19.50;65.40;;;;;;4914117;29;20056;-72
2023/03/22 03:07:49;;;;;;;1.38;1.00;;;19.50;65.50;;;;;;4913305;29;20048;-72
2023/03/22 03:10:19;;;;;;;1.23;0.85;;;19.40;65.50;;;;;;4895320;29;20067;-72
2023/03/22 03:12:46;;;;;;;1.00;0.50;;;19.40;66.10;;;;;;4878274;29;20120;-72
2023/03/22 03:15:17;;;;;;;0.85;0.32;;;19.40;65.50;;;;;;4900313;29;20501;-72
2023/03/22 03:18:01;;;;;;;1.27;0.70;;;19.40;65.50;;;;;;4912117;29;20051;-72
2023/03/22 03:20:36;;;;;;;1.23;0.22;;;19.40;65.60;;;;;;4908944;29;20052;-72
2023/03/22 03:23:15;;;;;;;1.15;0.40;;;19.30;65.50;;;;;;4890116;29;20108;-72
2023/03/22 03:25:52;;;;;;;1.10;0.35;;;19.30;65.60;;;;;;4892803;29;20063;-72
2023/03/22 03:28:28;;;;;;;2.80;0.90;;;19.30;65.60;;;;;;4911160;29;20053;-73
2023/03/22 03:31:00;;;;;;;2.28;0.77;;;19.30;65.60;;;;;;4911154;29;20105;-72
2023/03/22 03:33:29;;;;;;;1.42;0.60;;;19.30;65.50;;;;;;4896780;29;20744;-72
2023/03/22 03:36:00;;;;;;;0.95;0.20;;;19.30;65.50;;;;;;4892578;29;20095;-72
2023/03/22 03:38:31;;;;;;;1.13;0.60;;;19.40;65.50;;;;;;4915440;29;20056;-72
2023/03/22 03:41:03;;;;;;;0.88;0.32;;;19.40;65.40;;;;;;4894600;29;20052;-72
2023/03/22 03:43:30;;;;;;;2.58;0.32;;;19.40;65.30;;;;;;4895270;29;20418;-72
2023/03/22 03:45:57;;;;;;;1.00;0.30;;;19.50;65.20;;;;;;4910633;29;20082;-72
2023/03/22 03:48:31;;;;;;;1.02;0.35;;;19.50;65.10;;;;;;4909660;29;20410;-72
2023/03/22 03:50:59;;;;;;;1.15;0.45;;;19.60;65.10;;;;;;4881693;29;20166;-72
2023/03/22 03:53:26;;;;;;;1.52;0.73;;;19.70;65.00;;;;;;4881458;29;20060;-72
2023/03/22 03:55:53;;;;;;;1.05;0.60;;;19.70;64.80;;;;;;4881152;29;20060;-72
2023/03/22 03:58:21;;;;;;;1.05;0.32;;;19.80;64.70;;;;;;4898130;29;20061;-72
2023/03/22 04:00:49;;;;;;;1.88;0.50;;;19.90;64.70;;;;;;4898156;29;20075;-73
2023/03/22 04:03:17;;;;;;;1.48;0.80;;;19.90;64.50;;;;;;4896163;29;20062;-72
2023/03/22 04:05:44;;;;;;;1.15;0.20;;;20.00;64.40;;;;;;4935840;29;20059;-72
2023/03/22 04:08:11;;;;;;;1.30;0.55;;;20.00;64.40;;;;;;4935622;29;20141;-72
2023/03/22 04:10:38;;;;;;;1.45;0.60;;;20.10;64.90;;;;;;4918886;29;20099;-72
2023/03/22 04:13:05;;;;;;;1.30;0.68;;;20.10;64.30;;;;;;4918856;29;20063;-72
2023/03/22 04:15:33;;;;;;;1.40;0.65;;;20.10;64.30;;;;;;4898560;29;20060;-72
2023/03/22 04:18:00;;;;;;;2.35;0.20;;;20.10;64.30;;;;;;4913155;29;20059;-72
2023/03/22 04:20:28;;;;;;;1.65;0.75;;;20.10;64.30;;;;;;4918803;29;20055;-72
2023/03/22 04:22:56;;;;;;;1.00;0.38;;;20.00;64.30;;;;;;4933812;29;20405;-72
2023/03/22 04:25:29;;;;;;;1.25;0.30;;;20.00;64.30;;;;;;4918725;29;20052;-72
2023/03/22 04:27:56;;;;;;;1.40;0.55;;;20.00;64.40;;;;;;4935362;29;20055;-73
2023/03/22 04:30:23;;;;;;;1.33;0.82;;;20.00;64.40;;;;;;4917490;29;20123;-72
2023/03/22 04:32:51;;;;;;;2.13;0.57;;;20.00;64.40;;;;;;4935587;29;20206;-73
2023/03/22 04:35:18;;;;;;;1.02;0.22;;;19.90;64.40;;;;;;4917920;29;20398;-72
2023/03/22 04:37:45;;;;;;;1.58;0.35;;;19.90;64.40;;;;;;4935486;29;20056;-72
2023/03/22 04:40:15;;;;;;;1.48;0.68;;;19.90;64.50;;;;;;4934960;29;20063;-72
2023/03/22 04:42:43;;;;;;;0.90;0.40;;;19.90;64.50;;;;;;4917659;29;20437;-72
2023/03/22 04:45:11;;;;;;;1.40;0.70;;;19.80;64.60;;;;;;4902213;29;20104;-72
2023/03/22 04:47:38;;;;;;;1.20;0.75;;;19.80;64.60;;;;;;4898456;29;20060;-72
2023/03/22 04:50:08;;;;;;;1.70;0.55;;;19.80;64.60;;;;;;4918826;29;20048;-72
2023/03/22 04:52:35;;;;;;;1.40;0.50;;;19.80;64.60;;;;;;4888568;29;20078;-72
2023/03/22 04:55:03;;;;;;;1.77;0.80;;;19.80;64.70;;;;;;4916062;29;20044;-72
2023/03/22 04:57:29;;;;;;;1.48;0.73;;;19.70;64.60;;;;;;4894674;29;20063;-71
2023/03/22 04:59:56;;;;;;;1.10;0.20;;;19.70;64.70;;;;;;4902425;29;20056;-72
2023/03/22 05:02:23;;;;;;;1.83;0.55;;;19.60;64.80;;;;;;4886626;29;20049;-72
2023/03/22 05:04:51;;;;;;;1.48;0.88;;;19.60;64.70;;;;;;4898929;29;20064;-72
2023/03/22 05:07:19;;;;;;;1.30;0.50;;;19.60;64.80;;;;;;4934461;29;20055;-72
2023/03/22 05:09:46;;;;;;;2.03;0.20;;;19.50;64.80;;;;;;4917939;29;20063;-72
2023/03/22 05:12:13;;;;;;;1.40;0.75;;;19.50;64.90;;;;;;4934266;29;20062;-72
2023/03/22 05:14:40;;;;;;;1.33;0.82;;;19.50;64.90;;;;;;4898697;29;20489;-72
2023/03/22 05:17:07;;;;;;;1.55;0.68;;;19.40;64.90;;;;;;4915905;29;20056;-72
2023/03/22 05:19:34;;;;;;;1.05;0.75;;;19.50;65.00;;;;;;4916794;29;20044;-72
2023/03/22 05:22:01;;;;;;;1.55;0.60;;;19.40;64.90;;;;;;4915536;29;20052;-72
2023/03/22 05:24:30;;;;;;;0.85;0.20;;;19.40;65.00;;;;;;4898446;29;20450;-72
2023/03/22 05:26:59;;;;;;;1.52;0.70;;;19.40;65.00;;;;;;4898446;29;20720;-72
2023/03/22 05:29:27;;;;;;;1.42;0.55;;;19.30;65.00;;;;;;4898272;29;20063;-72
2023/03/22 05:31:54;;;;;;;1.50;0.75;;;19.30;65.00;;;;;;4907356;29;20056;-72
2023/03/22 05:34:21;;;;;;;1.52;0.30;;;19.30;65.00;;;;;;4934377;29;20449;-72
2023/03/22 05:36:50;;;;;;;1.08;0.60;;;19.30;65.00;;;;;;4933937;29;20063;-72
2023/03/22 05:39:17;;;;;;;1.02;0.15;;;19.30;65.00;;;;;;4917448;29;20058;-72
2023/03/22 05:41:46;;;;;;;1.45;1.05;;;19.40;65.10;;;;;;4915165;29;20051;-72
2023/03/22 05:44:13;;;;;;;1.35;0.55;;;19.40;64.90;;;;;;4915237;29;20063;-72
2023/03/22 05:46:40;;;;;;;1.23;0.60;;;19.40;64.90;;;;;;4916755;29;20048;-72
2023/03/22 05:49:07;;;;;;;1.33;0.63;;;19.50;64.90;;;;;;4930002;29;20142;-72
2023/03/22 05:51:40;;;;;;;1.23;0.60;;;19.50;64.80;;;;;;4914587;29;20102;-72
2023/03/22 05:54:07;;;;;;;1.10;0.70;;;19.60;64.70;;;;;;4916511;29;20063;-72
2023/03/22 05:56:34;;;;;;;1.80;0.28;;;19.60;64.60;;;;;;4916480;29;20071;-72
2023/03/22 05:59:03;;;;;;;1.52;0.63;;;19.70;64.50;;;;;;4929350;29;20513;-72
2023/03/22 06:01:30;;;;;;;1.40;0.80;;;19.70;64.40;;;;;;4934097;29;20051;-72
2023/03/22 06:03:57;;;;;;;1.85;0.80;;;19.80;64.40;;;;;;4916632;29;20662;-72
2023/03/22 06:06:26;;;;;;;1.35;1.13;;;19.90;64.20;;;;;;4923016;29;20055;-72
2023/03/22 06:08:54;;;;;;;1.42;0.15;;;19.90;64.10;;;;;;4908879;29;20158;-72
2023/03/22 06:11:22;;;;;;;1.30;0.40;;;20.00;64.00;;;;;;4908816;29;20057;-72
2023/03/22 06:13:49;;;;;;;0.80;0.15;;;20.10;63.90;;;;;;4933341;29;20579;-72
2023/03/22 06:16:17;;;;;;;1.55;0.45;;;20.10;63.90;;;;;;4914233;29;20056;-72
2023/03/22 06:18:44;;;;;;;0.93;0.50;;;20.10;63.80;;;;;;4916506;29;20055;-72
2023/03/22 06:21:11;;;;;;;1.30;0.52;;;20.10;63.80;;;;;;4916484;29;20512;-72
2023/03/22 06:23:38;;;;;;;1.77;0.77;;;20.10;64.40;;;;;;4908815;29;20060;-72
2023/03/22 06:26:05;;;;;;;1.40;0.20;;;20.10;63.80;;;;;;4889398;29;20051;-72
2023/03/22 06:28:32;;;;;;;1.25;0.65;;;20.10;63.80;;;;;;4933595;29;20055;-72
2023/03/22 06:31:06;;;;;;;0.82;0.30;;;20.10;63.90;;;;;;4933642;29;20516;-71
2023/03/22 06:33:35;;;;;;;1.00;0.45;;;20.10;63.90;;;;;;4914254;29;20040;-71
2023/03/22 06:36:02;;;;;;;1.25;0.82;;;20.10;63.90;;;;;;4916251;29;20074;-71
2023/03/22 06:38:29;;;;;;;1.77;0.73;;;20.00;63.90;;;;;;4932971;29;20052;-71
2023/03/22 06:40:56;;;;;;;1.25;0.30;;;20.00;64.00;;;;;;4927120;29;20212;-72
2023/03/22 06:43:23;;;;;;;2.55;1.10;;;20.00;64.00;;;;;;4933197;29;20051;-71
2023/03/22 06:45:50;;;;;;;1.38;0.80;;;19.90;64.00;;;;;;4933615;29;20063;-71
2023/03/22 06:48:17;;;;;;;1.40;0.30;;;19.90;64.00;;;;;;4928193;29;20060;-71
2023/03/22 06:50:45;;;;;;;2.78;0.70;;;19.90;64.10;;;;;;4915512;29;20075;-71
2023/03/22 06:53:12;;;;;;;1.35;0.88;;;19.90;64.20;;;;;;4933102;29;20052;-71
2023/03/22 06:55:40;;;;;;;1.73;0.93;;;19.90;64.10;;;;;;4915811;29;20048;-71
2023/03/22 06:58:07;;;;;;;0.90;0.30;;;19.90;64.20;;;;;;4917292;29;20095;-71
2023/03/22 07:00:34;;;;;;;1.38;0.50;;;19.80;64.20;;;;;;4932967;29;20075;-71
2023/03/22 07:03:01;;;;;;;1.98;0.80;;;19.80;64.20;;;;;;4929761;29;20130;-70
2023/03/22 07:05:28;;;;;;;2.10;0.70;;;19.80;64.20;;;;;;4914248;29;20045;-71
2023/03/22 07:07:56;;;;;;;1.85;0.95;;;19.80;64.20;;;;;;4913136;29;20057;-71
2023/03/22 07:10:23;;;;;;;1.10;0.30;;;19.80;64.30;;;;;;4915887;29;20433;-71
2023/03/22 07:12:50;;;;;;;1.63;1.00;;;19.70;64.20;;;;;;4917031;29;20048;-72
2023/03/22 07:15:18;;;;;;;0.98;0.20;;;19.70;64.30;;;;;;4912307;29;20076;-72
2023/03/22 07:17:45;;;;;;;0.73;0.20;;;19.70;64.40;;;;;;4916888;29;20051;-71
2023/03/22 07:20:12;;;;;;;2.83;0.70;;;19.70;64.40;;;;;;4919964;29;20860;-77
2023/03/22 07:22:39;;;;;;;1.38;0.63;;;19.60;64.40;;;;;;4935248;29;20047;-76
2023/03/22 07:25:09;;;;;;;1.73;1.13;;;19.70;64.50;;;;;;4935252;29;20047;-77
2023/03/22 07:27:36;;;;;;;4.88;0.68;;;19.60;64.50;;;;;;4935196;29;20496;-72
2023/03/22 07:30:03;;;;;;;0.80;0.13;;;19.60;64.60;;;;;;4916075;29;20135;-73
2023/03/22 07:32:31;;;;;;;1.30;0.30;;;19.60;64.70;;;;;;4910053;29;20055;-74
2023/03/22 07:34:57;;;;;;;1.85;0.63;;;19.60;64.80;;;;;;4928081;29;20082;-73
2023/03/22 07:37:24;;;;;;;1.20;0.40;;;19.60;64.80;;;;;;4935626;29;20474;-73
2023/03/22 07:39:52;;;;;;;0.73;0.10;;;19.60;64.80;;;;;;4934990;29;20056;-73
2023/03/22 07:42:20;;;;;;;1.33;0.22;;;19.60;64.80;;;;;;4933816;29;20420;-73
2023/03/22 07:44:48;;;;;;;0.98;0.20;;;19.50;65.40;;;;;;4936412;29;20052;-73
2023/03/22 07:47:15;;;;;;;2.15;0.77;;;19.50;64.80;;;;;;4927841;29;20055;-73
2023/03/22 07:49:42;;;;;;;0.93;0.10;;;19.50;64.80;;;;;;4898280;29;20051;-72
2023/03/22 07:52:09;;;;;;;1.40;0.20;;;19.50;64.90;;;;;;4933368;29;20055;-73
2023/03/22 07:54:36;;;;;;;1.35;0.60;;;19.50;64.90;;;;;;4936022;29;20501;-73
2023/03/22 07:57:04;;;;;;;1.23;0.45;;;19.50;64.90;;;;;;4932906;29;20493;-73
2023/03/22 07:59:32;;;;;;;1.20;0.22;;;19.50;64.90;;;;;;4935840;29;20429;-73
2023/03/22 08:01:59;;;;;;;2.08;0.40;;;19.50;65.00;;;;;;4936116;29;20048;-73
2023/03/22 08:04:26;;;;;;;1.63;0.73;;;19.50;64.90;;;;;;4894648;29;20067;-73
2023/03/22 08:06:57;;;;;;;3.08;1.02;;;19.40;65.50;;;;;;4881018;29;20139;-73
2023/03/22 08:09:24;;;;;;;1.20;0.60;;;19.40;65.00;;;;;;4891354;29;20103;-73
2023/03/22 08:11:51;;;;;;;2.00;0.20;;;19.40;64.90;;;;;;4928641;29;20052;-73
2023/03/22 08:14:18;;;;;;;1.42;0.65;;;19.40;64.90;;;;;;4923597;29;20055;-73
2023/03/22 08:16:46;;;;;;;1.83;0.80;;;19.40;64.90;;;;;;4899302;29;20060;-73
2023/03/22 08:19:14;;;;;;;1.15;0.60;;;19.40;64.90;;;;;;4898224;29;20048;-73
2023/03/22 08:21:41;;;;;;;1.48;0.70;;;19.40;64.80;;;;;;4896168;29;20051;-73
2023/03/22 08:24:08;;;;;;;1.75;0.88;;;19.50;64.80;;;;;;4915175;29;20067;-73
2023/03/22 08:26:36;;;;;;;1.45;0.28;;;19.50;64.80;;;;;;4922948;29;20493;-73
2023/03/22 08:29:03;;;;;;;1.50;1.08;;;19.60;65.30;;;;;;4912239;29;20056;-73
2023/03/22 08:31:30;;;;;;;1.23;0.22;;;19.60;64.60;;;;;;4904052;29;20482;-73
2023/03/22 08:33:58;;;;;;;1.75;0.55;;;19.70;64.50;;;;;;4917482;29;20051;-73
2023/03/22 08:36:26;;;;;;;1.27;0.50;;;19.70;64.40;;;;;;4911828;29;20041;-73
2023/03/22 08:38:53;;;;;;;1.55;0.75;;;19.80;64.30;;;;;;4890792;29;20111;-73
2023/03/22 08:41:20;;;;;;;2.72;0.60;;;19.90;64.20;;;;;;4910300;29;20059;-73
2023/03/22 08:43:46;;;;;;;1.17;0.68;;;19.90;64.10;;;;;;4909699;29;20687;-73
2023/03/22 08:46:14;;;;;;;1.98;0.43;;;20.00;64.00;;;;;;4905150;29;20473;-73
2023/03/22 08:48:41;;;;;;;1.17;0.52;;;20.00;63.90;;;;;;4914443;29;20056;-73
2023/03/22 08:51:09;;;;;;;1.15;0.55;;;20.10;63.80;;;;;;4915488;29;20059;-73
2023/03/22 08:53:36;;;;;;;1.23;0.20;;;20.10;63.70;;;;;;4913108;29;20052;-73
2023/03/22 08:56:03;;;;;;;2.13;0.80;;;20.20;63.70;;;;;;4899367;29;20722;-73
2023/03/22 08:58:30;;;;;;;2.10;0.55;;;20.20;63.70;;;;;;4903230;29;20111;-73
2023/03/22 09:00:57;;;;;;;1.98;0.70;;;20.20;63.60;;;;;;4905516;29;20706;-73
2023/03/22 09:03:24;;;;;;;1.00;0.47;;;20.20;63.60;;;;;;4915847;29;20052;-73
2023/03/22 09:05:51;;;;;;;1.13;0.55;;;20.20;63.60;;;;;;4906552;29;20055;-73
2023/03/22 09:08:20;;;;;;;2.47;0.68;;;20.20;63.60;;;;;;4901265;29;20052;-73
2023/03/22 09:10:50;;;;;;;1.20;0.40;;;20.20;63.70;;;;;;4927576;29;20051;-73
2023/03/22 09:13:17;;;;;;;1.25;0.52;;;20.20;63.70;;;;;;4933410;29;20055;-73
2023/03/22 09:15:44;;;;;;;1.73;0.75;;;20.20;63.70;;;;;;4916053;29;20063;-73
2023/03/22 09:18:11;;;;;;;1.80;0.85;;;20.20;63.70;;;;;;4927598;29;20053;-73
2023/03/22 09:20:39;;;;;;;1.40;0.60;;;20.20;63.70;;;;;;4915419;29;20593;-73
2023/03/22 09:23:05;;;;;;;1.90;0.70;;;20.20;64.40;;;;;;4915615;29;20055;-73
2023/03/22 09:25:34;;;;;;;1.05;0.43;;;20.20;63.80;;;;;;4911004;29;20060;-73
2023/03/22 09:28:01;;;;;;;1.23;0.20;;;20.10;63.80;;;;;;4918906;29;20047;-72
2023/03/22 09:30:28;;;;;;;1.77;0.70;;;20.10;63.90;;;;;;4932425;29;20048;-73
2023/03/22 09:32:56;;;;;;;2.10;0.90;;;20.10;63.90;;;;;;4919305;29;20055;-73
2023/03/22 09:35:23;;;;;;;1.15;0.10;;;20.10;63.90;;;;;;4919697;29;20063;-72
2023/03/22 09:37:52;;;;;;;1.88;0.82;;;20.10;64.00;;;;;;4919733;29;20516;-73
2023/03/22 09:40:19;;;;;;;0.93;0.30;;;20.10;64.10;;;;;;4925489;29;20500;-73
2023/03/22 09:42:50;;;;;;;1.95;1.20;;;20.00;64.10;;;;;;4921904;29;20055;-73
2023/03/22 09:45:20;;;;;;;1.98;0.35;;;20.00;64.20;;;;;;4925493;29;20473;-72
2023/03/22 09:47:49;;;;;;;2.13;1.23;;;20.00;64.30;;;;;;4914065;29;20059;-71
2023/03/22 09:50:20;;;;;;;1.20;0.65;;;20.00;64.40;;;;;;4921203;29;20057;-72
2023/03/22 09:52:47;;;;;;;1.48;0.70;;;20.00;64.40;;;;;;4919164;29;20044;-71
2023/03/22 09:55:20;;;;;;;2.13;0.80;;;20.00;64.50;;;;;;4931710;29;20051;-72
2023/03/22 09:57:55;;;;;;;1.98;0.60;;;19.90;64.50;;;;;;4929140;29;20078;-72
2023/03/22 10:00:33;;;;;;;2.50;0.60;;;19.90;64.50;;;;;;4898111;29;20059;-71
2023/03/22 10:03:09;;;;;;;1.95;0.98;;;19.90;64.60;;;;;;4901563;29;20043;-70
2023/03/22 10:05:43;;;;;;;2.55;0.85;;;19.90;64.60;;;;;;4892898;29;20055;-71
2023/03/22 10:08:24;;;;;;;1.50;0.80;;;19.90;64.70;;;;;;4882795;29;20059;-71
2023/03/22 10:10:51;;;;;;;1.65;0.70;;;19.90;64.70;;;;;;4898042;29;20056;-71
2023/03/22 10:13:27;;;;;;;2.05;0.98;;;19.80;64.60;;;;;;4914444;29;20071;-71
2023/03/22 10:15:57;;;;;;;1.92;0.38;;;19.90;64.70;;;;;;4900569;29;20052;-71
2023/03/22 10:18:29;;;;;;;1.40;0.30;;;19.80;64.70;;;;;;4914290;29;20059;-71
2023/03/22 10:21:01;;;;;;;1.98;0.77;;;19.80;64.80;;;;;;4892012;29;20056;-71
2023/03/22 10:23:34;;;;;;;3.55;0.93;;;19.80;64.70;;;;;;4916526;29;20063;-71
2023/03/22 10:26:02;;;;;;;2.92;0.70;;;19.70;64.70;;;;;;4916211;29;20114;-71
2023/03/22 10:28:38;;;;;;;1.50;0.65;;;19.80;64.80;;;;;;4895577;29;20053;-70
2023/03/22 10:31:05;;;;;;;;;;;19.70;64.80;;;;;;4896927;29;20075;-71
2023/03/22 10:33:38;;;;;;;2.42;0.35;;;19.70;64.80;;;;;;4914549;29;19934;-70
2023/03/22 10:36:09;;;;;;;2.47;0.60;;;19.60;64.80;;;;;;4900320;29;20460;-72
2023/03/22 10:38:44;;;;;;;3.22;0.73;;;19.70;64.80;;;;;;4917635;29;20063;-71
2023/03/22 10:41:14;;;;;;;1.13;0.20;;;19.60;65.40;;;;;;4892906;29;20059;-71
2023/03/22 10:43:44;;;;;;;2.47;0.40;;;19.60;64.90;;;;;;4914186;29;20406;-71
2023/03/22 10:46:17;;;;;;;1.95;0.30;;;19.60;64.90;;;;;;4914272;29;20052;-71
2023/03/22 10:48:46;;;;;;;1.20;0.40;;;19.60;64.90;;;;;;4897500;29;20064;-71
2023/03/22 10:51:22;;;;;;;2.22;0.50;;;19.60;65.00;;;;;;4917976;29;20059;-71
2023/03/22 10:53:51;;;;;;;1.83;0.75;;;19.50;64.90;;;;;;4904862;29;20063;-71
2023/03/22 10:56:20;;;;;;;2.25;0.77;;;19.50;64.90;;;;;;4901684;29;20059;-71
2023/03/22 10:58:49;;;;;;;1.27;0.43;;;19.50;65.00;;;;;;4915727;29;20103;-71
2023/03/22 11:01:25;;;;;;;1.42;0.73;;;19.50;65.00;;;;;;4910596;29;20053;-71
2023/03/22 11:04:05;;;;;;;2.00;0.55;;;19.50;65.00;;;;;;4897851;29;20137;-71
2023/03/22 11:06:37;;;;;;;1.40;0.52;;;19.40;65.00;;;;;;4933000;29;20107;-71
2023/03/22 11:12:49;;;;;;;1.60;0.88;;;19.40;65.00;;;;;;4908175;29;20095;-71
2023/03/22 11:15:26;;;;;;;2.70;0.80;;;19.40;65.10;;;;;;4903316;29;20051;-71
2023/03/22 11:17:58;;;;;;;1.55;0.50;;;19.40;65.10;;;;;;4911738;29;20051;-71
2023/03/22 11:20:25;;;;;;;1.73;0.60;;;19.40;65.10;;;;;;4896717;29;20092;-71
2023/03/22 11:22:53;;;;;;;3.35;1.00;;;19.40;65.10;;;;;;4896865;29;20059;-72
2023/03/22 11:25:25;;;;;;;2.15;0.90;;;19.40;65.10;;;;;;4914586;29;20614;-71
2023/03/22 11:27:55;;;;;;;2.03;0.63;;;19.40;65.10;;;;;;4916216;29;20063;-71
2023/03/22 11:30:26;;;;;;;2.75;0.82;;;19.40;65.10;;;;;;4932965;29;20060;-71
2023/03/22 11:33:02;;;;;;;1.45;0.70;;;19.50;65.10;;;;;;4931372;29;20052;-71
2023/03/22 11:35:31;;;;;;;2.15;0.47;;;19.50;65.10;;;;;;4913948;29;20062;-71
2023/03/22 11:38:01;;;;;;;1.67;0.50;;;19.60;65.10;;;;;;4897326;29;20056;-70
2023/03/22 11:40:30;;;;;;;2.22;1.00;;;19.60;65.00;;;;;;4883355;29;20048;-70
2023/03/22 11:43:10;;;;;;;1.92;0.85;;;19.70;64.90;;;;;;4885207;29;20056;-70
2023/03/22 11:45:42;;;;;;;2.28;0.25;;;19.70;64.80;;;;;;4878166;29;20413;-70
2023/03/22 11:48:15;;;;;;;1.90;0.57;;;19.80;64.70;;;;;;4902541;29;20056;-71
2023/03/22 11:50:44;;;;;;;1.25;0.68;;;19.90;64.70;;;;;;4903337;29;20048;-71
2023/03/22 11:53:15;;;;;;;1.17;0.35;;;20.00;65.20;;;;;;4904584;29;20080;-71
2023/03/22 11:55:43;;;;;;;1.55;0.60;;;20.00;64.50;;;;;;4905122;29;20052;-71
2023/03/22 11:58:25;;;;;;;1.95;0.38;;;20.10;64.40;;;;;;4889154;29;20425;-71
2023/03/22 12:00:54;;;;;;;;;;;20.20;64.40;;;;;;4906696;29;20134;-72
2023/03/22 12:03:27;;;;;;;1.25;0.63;;;20.20;64.50;;;;;;4906006;29;20633;-71
2023/03/22 12:05:54;;;;;;;2.53;0.40;;;20.20;64.20;;;;;;4906563;29;20040;-70
2023/03/22 12:08:27;;;;;;;1.63;0.22;;;20.20;64.30;;;;;;4906519;29;20651;-69
2023/03/22 12:10:58;;;;;;;1.70;0.30;;;20.20;64.30;;;;;;4903639;29;20044;-70
2023/03/22 12:13:32;;;;;;;1.33;0.50;;;20.20;64.30;;;;;;4906010;29;20060;-70
2023/03/22 12:16:04;;;;;;;1.92;0.70;;;20.20;64.40;;;;;;4903661;29;20060;-71
2023/03/22 12:18:38;;;;;;;1.70;0.40;;;20.20;64.50;;;;;;4905515;29;20052;-71
2023/03/22 12:21:05;;;;;;;2.17;0.25;;;20.20;64.50;;;;;;4905295;29;20052;-71
2023/03/22 12:23:34;;;;;;;1.38;0.73;;;20.20;64.50;;;;;;4905613;29;20056;-71
2023/03/22 12:26:05;;;;;;;1.42;0.55;;;20.10;64.50;;;;;;4903012;29;20056;-71
2023/03/22 12:28:37;;;;;;;3.25;0.88;;;20.20;64.60;;;;;;4904727;29;20145;-71
2023/03/22 12:31:06;;;;;;;1.33;0.20;;;20.10;64.60;;;;;;4904300;29;20048;-71
2023/03/22 12:33:38;;;;;;;1.67;1.00;;;20.10;64.70;;;;;;4910895;29;20056;-70
2023/03/22 12:36:07;;;;;;;1.60;0.55;;;20.10;64.80;;;;;;4910103;29;20048;-70
2023/03/22 12:38:40;;;;;;;2.40;0.52;;;20.10;64.80;;;;;;4910066;29;20536;-70
2023/03/22 12:41:12;;;;;;;1.55;0.65;;;20.10;64.80;;;;;;4914743;29;20049;-70
2023/03/22 12:43:47;;;;;;;1.70;0.28;;;20.00;64.80;;;;;;4915021;29;20052;-71
2023/03/22 12:46:20;;;;;;;1.95;0.30;;;20.00;64.90;;;;;;4918830;29;20509;-70
2023/03/22 12:48:50;;;;;;;1.75;0.60;;;20.00;65.00;;;;;;4905668;29;20100;-70
2023/03/22 12:51:17;;;;;;;2.35;0.30;;;20.00;65.00;;;;;;4916770;29;20493;-70
2023/03/22 12:53:48;;;;;;;2.03;0.50;;;19.90;65.00;;;;;;4935063;29;20715;-70
2023/03/22 12:56:18;;;;;;;1.60;0.70;;;19.90;65.00;;;;;;4935039;29;20047;-70
2023/03/22 12:58:48;;;;;;;1.10;0.25;;;19.90;65.00;;;;;;4922799;29;20064;-70
2023/03/22 13:01:25;;;;;;;1.88;0.50;;;19.80;65.00;;;;;;4916291;29;20052;-70
2023/03/22 13:03:54;;;;;;;2.60;0.25;;;19.80;65.00;;;;;;4915420;29;20044;-70